Time;durP1;ratioP1;P1;durP2;ratioP2;P2;SDS_P1;SDS_P2;PMS_P1;PMS_P2;Temp;Humidity;BMP_temperature;BMP_pressure;BME280_temperature;BME280_humidity;BME280_pressure;Samples;Min_cycle;Max_cycle;Signal;HPM_P1;HPM_P2
2022/04/08 00:01:15;;;;;;;3.10;1.65;;;;;;;19.44;49.04;99328.00;5023745;28;20558;-52
2022/04/08 00:03:41;;;;;;;3.47;1.65;;;;;;;19.42;49.08;99320.31;5015669;28;20548;-50
2022/04/08 00:06:08;;;;;;;2.55;1.20;;;;;;;19.42;49.05;99328.25;5026503;28;20108;-52
2022/04/08 00:08:34;;;;;;;2.60;1.50;;;;;;;19.41;49.28;99325.81;5025316;28;20038;-50
2022/04/08 00:11:00;;;;;;;2.70;2.03;;;;;;;19.39;49.31;99318.13;5025527;28;20080;-56
2022/04/08 00:13:26;;;;;;;3.65;1.65;;;;;;;19.39;49.30;99318.13;5024255;28;20442;-51
2022/04/08 00:15:51;;;;;;;4.60;2.58;;;;;;;19.38;49.15;99313.88;5022970;28;20076;-49
2022/04/08 00:18:18;;;;;;;1.80;1.33;;;;;;;19.37;48.98;99312.31;5021457;28;20041;-50
2022/04/08 00:20:43;;;;;;;5.15;2.47;;;;;;;19.37;48.99;99307.03;5021454;28;20031;-49
2022/04/08 00:23:09;;;;;;;4.47;2.10;;;;;;;19.37;48.97;99300.94;5024846;28;20025;-52
2022/04/08 00:25:35;;;;;;;4.25;2.03;;;;;;;19.36;49.10;99299.31;5026870;28;20022;-53
2022/04/08 00:28:01;;;;;;;3.33;1.60;;;;;;;19.34;48.94;99299.56;5023663;28;20452;-47
2022/04/08 00:30:26;;;;;;;2.28;1.60;;;;;;;19.34;48.98;99290.84;5024498;28;20032;-54
2022/04/08 00:32:52;;;;;;;5.22;2.03;;;;;;;19.33;48.96;99279.47;5023410;28;20033;-48
2022/04/08 00:35:18;;;;;;;4.82;2.00;;;;;;;19.33;49.04;99278.66;5025062;28;20082;-47
2022/04/08 00:37:43;;;;;;;4.70;1.70;;;;;;;19.32;48.93;99271.78;5024687;28;20041;-52
2022/04/08 00:40:10;;;;;;;2.78;1.58;;;;;;;19.32;48.99;99272.56;5026561;28;20606;-48
2022/04/08 00:42:36;;;;;;;2.92;1.35;;;;;;;19.32;48.77;99280.50;5022487;28;20144;-50
2022/04/08 00:45:03;;;;;;;3.22;1.40;;;;;;;19.31;48.80;99281.53;5024952;28;20584;-48
2022/04/08 00:47:28;;;;;;;2.95;1.77;;;;;;;19.33;48.86;99278.66;5027873;28;20659;-55
2022/04/08 00:49:54;;;;;;;2.92;1.52;;;;;;;19.31;48.79;99273.59;5025933;28;20072;-52
2022/04/08 00:52:20;;;;;;;2.55;1.42;;;;;;;19.32;48.89;99277.84;5030254;28;20038;-46
2022/04/08 00:54:48;;;;;;;2.80;1.40;;;;;;;19.31;48.79;99276.25;5028605;28;20089;-53
2022/04/08 00:57:14;;;;;;;3.58;1.33;;;;;;;19.31;48.78;99270.97;5026198;28;20044;-49
2022/04/08 00:59:39;;;;;;;2.40;1.30;;;;;;;19.30;48.77;99279.91;5026532;28;20029;-49
2022/04/08 01:02:05;;;;;;;4.22;1.50;;;;;;;19.31;48.73;99286.81;5024856;28;20029;-55
2022/04/08 01:04:30;;;;;;;2.33;1.60;;;;;;;19.30;48.67;99285.19;5023925;28;20026;-52
2022/04/08 01:06:56;;;;;;;2.72;1.35;;;;;;;19.29;48.64;99282.78;5027283;28;20032;-49
2022/04/08 01:09:22;;;;;;;3.40;1.75;;;;;;;19.30;48.62;99295.75;5027670;28;20048;-53
2022/04/08 01:11:48;;;;;;;2.40;1.45;;;;;;;19.30;48.71;99285.19;5026931;28;20072;-49
2022/04/08 01:14:15;;;;;;;3.58;1.73;;;;;;;19.30;48.90;99290.47;5025263;28;20452;-50
2022/04/08 01:16:41;;;;;;;2.45;1.73;;;;;;;19.30;48.59;99290.47;5023302;28;20025;-50
2022/04/08 01:19:07;;;;;;;2.60;1.55;;;;;;;19.30;48.59;99279.91;5023703;28;20036;-49
2022/04/08 01:21:33;;;;;;;1.60;1.00;;;;;;;19.31;48.77;99281.53;5027602;28;20030;-48
2022/04/08 01:24:00;;;;;;;2.30;1.17;;;;;;;19.32;48.55;99282.34;5024382;28;20048;-50
2022/04/08 01:26:26;;;;;;;5.28;1.60;;;;;;;19.31;48.66;99286.81;5023875;28;20034;-47
2022/04/08 01:28:53;;;;;;;1.83;1.20;;;;;;;19.32;48.65;99288.41;5025528;28;20025;-53
2022/04/08 01:31:18;;;;;;;2.00;1.00;;;;;;;19.32;48.56;99293.69;5020835;28;20038;-47
2022/04/08 01:33:44;;;;;;;3.55;1.35;;;;;;;19.32;48.55;99298.19;5022360;28;20861;-50
2022/04/08 01:36:10;;;;;;;2.08;1.20;;;;;;;19.31;48.61;99286.81;5024078;28;20365;-50
2022/04/08 01:38:36;;;;;;;1.88;1.38;;;;;;;19.30;48.57;99293.13;5023582;28;20036;-50
2022/04/08 01:41:01;;;;;;;2.53;1.27;;;;;;;19.30;48.65;99298.41;5026207;28;20599;-50
2022/04/08 01:43:27;;;;;;;4.50;1.30;;;;;;;19.30;48.57;99300.25;5023638;28;20646;-45
2022/04/08 01:45:52;;;;;;;3.47;1.40;;;;;;;19.29;48.52;99298.63;5023183;28;20749;-52
2022/04/08 01:48:17;;;;;;;2.85;1.00;;;;;;;19.28;48.59;99291.75;5024461;28;20033;-51
2022/04/08 01:50:43;;;;;;;1.90;1.10;;;;;;;19.29;48.47;99303.91;5022795;28;20065;-47
2022/04/08 01:53:09;;;;;;;2.55;0.98;;;;;;;19.28;48.61;99292.53;5022754;28;20022;-50
2022/04/08 01:55:34;;;;;;;2.88;1.10;;;;;;;19.28;48.50;99295.19;5025578;28;20172;-51
2022/04/08 01:58:02;;;;;;;2.17;1.10;;;;;;;19.27;48.51;99296.22;5023419;28;20106;-52
2022/04/08 02:00:28;;;;;;;2.50;1.05;;;;;;;19.28;48.56;99299.66;5015292;28;20310;-51
2022/04/08 02:02:53;;;;;;;5.00;1.80;;;;;;;19.26;48.45;99297.25;5016877;28;20017;-53
2022/04/08 02:05:19;;;;;;;3.85;1.27;;;;;;;19.26;48.61;99281.41;5022435;28;20087;-50
2022/04/08 02:07:44;;;;;;;2.33;1.45;;;;;;;19.26;48.39;99272.69;5027754;28;20150;-50
2022/04/08 02:12:45;;;;;;;2.35;0.93;;;;;;;19.22;48.49;99285.53;5220783;22;20083;-54
2022/04/08 02:15:11;;;;;;;1.67;1.00;;;;;;;19.22;48.42;99285.53;4987399;28;20398;-49
2022/04/08 02:17:36;;;;;;;2.70;1.90;;;;;;;19.22;48.44;99288.97;4985595;28;20045;-49
2022/04/08 02:20:04;;;;;;;3.38;1.38;;;;;;;19.22;48.31;99286.34;4988573;28;20496;-46
2022/04/08 02:22:31;;;;;;;1.95;0.77;;;;;;;19.22;48.34;99293.47;4987103;28;20026;-50
2022/04/08 02:24:58;;;;;;;2.05;1.00;;;;;;;19.22;48.29;99293.47;4986920;28;20030;-53
2022/04/08 02:27:26;;;;;;;1.45;0.80;;;;;;;19.21;48.34;99297.94;4986907;28;20038;-49
2022/04/08 02:29:52;;;;;;;1.60;0.70;;;;;;;19.20;48.20;99295.53;5002266;28;20041;-51
2022/04/08 02:32:17;;;;;;;2.53;1.20;;;;;;;19.19;48.28;99312.41;4987891;28;20054;-49
2022/04/08 02:34:43;;;;;;;2.30;1.17;;;;;;;19.18;48.20;99316.88;4987488;28;20400;-54
2022/04/08 02:37:08;;;;;;;4.10;1.17;;;;;;;19.17;48.20;99304.69;4986800;28;20393;-52
2022/04/08 02:39:34;;;;;;;3.90;1.30;;;;;;;19.17;48.17;99312.63;4986934;28;20054;-44
2022/04/08 02:41:59;;;;;;;5.32;1.08;;;;;;;19.16;48.27;99310.22;4986330;28;20336;-52
2022/04/08 02:44:25;;;;;;;2.70;1.17;;;;;;;19.16;48.22;99313.66;4988241;28;20552;-52
2022/04/08 02:46:50;;;;;;;2.95;1.02;;;;;;;19.16;48.26;99321.56;4988558;28;20125;-48
2022/04/08 02:49:16;;;;;;;3.05;0.90;;;;;;;19.15;48.18;99303.31;4988294;28;20375;-51
2022/04/08 02:51:41;;;;;;;2.88;1.02;;;;;;;19.16;48.19;99310.22;4987782;28;20058;-49
2022/04/08 02:54:07;;;;;;;3.40;0.90;;;;;;;19.16;48.05;99318.13;4987146;28;20023;-50
2022/04/08 02:56:32;;;;;;;1.88;0.88;;;;;;;19.16;48.25;99302.28;4988055;28;20037;-45
2022/04/08 02:59:00;;;;;;;2.10;0.90;;;;;;;19.18;48.03;99310.78;4987828;28;20026;-48
2022/04/08 03:01:26;;;;;;;2.30;0.90;;;;;;;19.18;48.13;99306.31;4986218;28;20136;-48
2022/04/08 03:03:52;;;;;;;4.00;0.90;;;;;;;19.19;48.32;99301.84;4988136;28;20185;-53
2022/04/08 03:06:17;;;;;;;2.58;0.73;;;;;;;19.19;48.41;99299.19;4985436;28;20129;-47
2022/04/08 03:08:42;;;;;;;2.75;0.90;;;;;;;19.20;48.33;99295.53;4985957;28;20045;-52
2022/04/08 03:11:08;;;;;;;4.95;0.98;;;;;;;19.20;48.53;99296.34;4986449;28;20206;-49
2022/04/08 03:13:35;;;;;;;3.13;0.63;;;;;;;19.21;48.42;99310.34;4984395;28;20529;-45
2022/04/08 03:16:01;;;;;;;1.98;0.85;;;;;;;19.21;48.58;99310.34;4986154;28;20037;-49
2022/04/08 03:18:26;;;;;;;3.42;0.63;;;;;;;19.21;48.46;99319.06;4987731;28;20034;-51
2022/04/08 03:20:51;;;;;;;1.65;0.70;;;;;;;19.21;48.51;99312.97;4988062;28;20048;-53
2022/04/08 03:23:17;;;;;;;2.15;0.73;;;;;;;19.21;48.46;99307.69;4987248;28;20398;-49
2022/04/08 03:25:42;;;;;;;1.95;0.50;;;;;;;19.19;48.42;99310.56;4987684;28;20485;-46
2022/04/08 03:28:09;;;;;;;2.50;1.05;;;;;;;19.20;48.36;99311.38;4987774;28;20034;-49
2022/04/08 03:30:35;;;;;;;2.35;0.77;;;;;;;19.20;48.55;99316.66;4987805;28;20117;-54
2022/04/08 03:33:00;;;;;;;2.20;0.95;;;;;;;19.18;48.65;99308.94;4986985;28;20033;-52
2022/04/08 03:35:26;;;;;;;3.92;0.95;;;;;;;19.17;48.54;99302.06;4986086;28;20045;-50
2022/04/08 03:37:52;;;;;;;1.85;0.75;;;;;;;19.17;48.58;99303.91;4985450;28;20054;-54
2022/04/08 03:40:17;;;;;;;2.35;0.90;;;;;;;19.16;48.62;99303.09;4986289;28;20152;-47
2022/04/08 03:42:43;;;;;;;1.95;0.60;;;;;;;19.15;48.61;99298.84;4987182;28;20031;-49
2022/04/08 03:45:08;;;;;;;2.95;0.90;;;;;;;19.15;48.66;99308.59;4985462;28;20062;-45
2022/04/08 03:47:34;;;;;;;4.15;0.75;;;;;;;19.14;48.63;99307.81;4986857;28;20123;-45
2022/04/08 03:49:59;;;;;;;3.72;0.70;;;;;;;19.14;48.66;99310.44;4987302;28;20418;-47
2022/04/08 03:52:29;;;;;;;3.22;1.00;;;;;;;19.14;48.60;99301.72;4987585;28;20161;-44
2022/04/08 03:54:55;;;;;;;4.10;0.95;;;;;;;19.14;48.61;99299.88;4986405;28;20033;-46
2022/04/08 03:57:20;;;;;;;3.38;0.75;;;;;;;19.15;48.63;99300.69;4987279;28;20035;-49
2022/04/08 03:59:47;;;;;;;2.47;0.80;;;;;;;19.14;48.53;99309.63;4987351;28;20030;-44
2022/04/08 04:02:13;;;;;;;2.33;0.50;;;;;;;19.13;48.50;99308.84;4987090;28;20518;-48
2022/04/08 04:04:38;;;;;;;1.50;0.65;;;;;;;19.14;48.43;99321.00;4986417;28;20101;-53
2022/04/08 04:07:04;;;;;;;2.10;0.70;;;;;;;19.14;48.52;99323.63;4986650;28;20373;-43
2022/04/08 04:09:29;;;;;;;2.95;0.90;;;;;;;19.14;48.44;99331.56;4985474;28;20055;-50
2022/04/08 04:11:55;;;;;;;2.47;0.50;;;;;;;19.14;48.66;99338.69;4983771;28;20061;-44
2022/04/08 04:14:20;;;;;;;2.03;0.73;;;;;;;19.13;48.44;99337.06;5001707;28;20026;-51
2022/04/08 04:16:46;;;;;;;5.90;0.70;;;;;;;19.13;48.55;99337.06;4988299;28;20026;-47
2022/04/08 04:19:11;;;;;;;3.33;0.82;;;;;;;19.11;48.65;99337.28;4990854;28;20352;-50
2022/04/08 04:21:37;;;;;;;1.42;0.63;;;;;;;19.11;48.61;99344.41;4989781;28;20186;-53
2022/04/08 04:24:03;;;;;;;1.63;0.98;;;;;;;19.11;48.73;99354.97;4990150;28;20026;-46
2022/04/08 04:26:28;;;;;;;1.10;0.70;;;;;;;19.08;48.76;99353.59;4987835;28;20093;-49
2022/04/08 04:28:53;;;;;;;2.38;0.70;;;;;;;19.09;48.94;99357.03;4989780;28;20046;-46
2022/04/08 04:31:19;;;;;;;16.35;0.73;;;;;;;19.09;49.33;99357.84;4990475;28;20038;-49
2022/04/08 04:33:44;;;;;;;9.27;1.05;;;;;;;19.10;49.42;99363.91;4987618;28;20030;-43
2022/04/08 04:36:12;;;;;;;5.03;0.70;;;;;;;19.10;49.41;99361.28;4988815;28;20085;-46
2022/04/08 04:38:38;;;;;;;3.03;0.70;;;;;;;19.09;49.84;99357.03;4987146;28;20524;-48
2022/04/08 04:41:03;;;;;;;10.07;0.98;;;;;;;19.14;50.43;99349.25;4989662;28;20034;-55
2022/04/08 04:43:29;;;;;;;14.80;9.57;;;;;;;19.22;53.25;99354.19;4989017;28;20037;-48
2022/04/08 04:45:54;;;;;;;9.77;2.63;;;;;;;19.24;52.95;99349.50;4989308;28;20030;-51
2022/04/08 04:48:20;;;;;;;4.15;1.05;;;;;;;19.21;52.00;99355.22;4990473;28;20433;-46
2022/04/08 04:50:46;;;;;;;4.55;0.82;;;;;;;19.17;51.05;99349.59;4988351;28;20378;-52
2022/04/08 04:53:12;;;;;;;3.05;0.73;;;;;;;19.17;50.64;99360.16;4988685;28;20030;-51
2022/04/08 04:55:38;;;;;;;2.28;0.63;;;;;;;19.16;50.33;99370.94;4988686;28;20121;-52
2022/04/08 04:58:03;;;;;;;5.13;0.60;;;;;;;19.16;50.21;99373.56;4989773;28;20396;-55
2022/04/08 05:00:29;;;;;;;6.15;0.88;;;;;;;19.17;49.85;99383.09;4987633;28;20478;-52
2022/04/08 05:02:55;;;;;;;2.28;0.75;;;;;;;19.17;49.78;99391.84;4987258;28;20382;-44
2022/04/08 05:05:20;;;;;;;5.03;1.02;;;;;;;19.17;49.74;99385.75;4989178;28;20043;-43
2022/04/08 05:07:46;;;;;;;4.80;0.50;;;;;;;19.18;49.53;99395.28;4987978;28;20030;-53
2022/04/08 05:10:11;;;;;;;2.70;0.70;;;;;;;19.17;49.48;99391.84;4989704;28;20026;-47
2022/04/08 05:12:37;;;;;;;2.90;0.70;;;;;;;19.19;49.23;99402.16;4988046;28;20394;-51
2022/04/08 05:15:07;;;;;;;3.58;0.82;;;;;;;19.17;49.24;99402.41;4988063;28;20031;-52
2022/04/08 05:17:38;;;;;;;2.08;0.50;;;;;;;19.15;49.14;99399.16;4986583;28;20390;-57
2022/04/08 05:20:07;;;;;;;3.53;0.30;;;;;;;19.16;49.24;99399.97;4988888;28;20045;-51
2022/04/08 05:22:34;;;;;;;3.03;0.60;;;;;;;19.16;49.24;99402.63;4987257;28;20030;-44
2022/04/08 05:25:00;;;;;;;1.98;0.70;;;;;;;19.15;49.20;99403.66;4988631;28;20031;-51
2022/04/08 05:27:26;;;;;;;4.82;0.82;;;;;;;19.16;49.16;99407.91;4986969;28;20543;-51
2022/04/08 05:29:52;;;;;;;4.88;0.70;;;;;;;19.13;49.25;99414.44;4988125;28;20053;-54
2022/04/08 05:32:17;;;;;;;2.35;0.50;;;;;;;19.13;49.19;99411.78;4987650;28;20546;-51
2022/04/08 05:34:43;;;;;;;1.83;0.60;;;;;;;19.13;49.26;99416.28;4989409;28;20547;-48
2022/04/08 05:37:09;;;;;;;3.00;0.80;;;;;;;19.12;49.21;99414.66;4988379;28;20385;-46
2022/04/08 05:39:34;;;;;;;2.47;0.50;;;;;;;19.11;49.17;99419.13;4987552;28;20510;-51
2022/04/08 05:42:00;;;;;;;2.15;0.68;;;;;;;19.11;49.26;99419.13;4986966;28;20039;-49
2022/04/08 05:44:26;;;;;;;4.72;1.02;;;;;;;19.12;49.25;99430.50;4989230;28;20022;-53
2022/04/08 05:46:51;;;;;;;5.63;0.70;;;;;;;19.10;49.24;99430.72;4988968;28;20030;-53
2022/04/08 05:49:17;;;;;;;6.18;0.60;;;;;;;19.10;49.17;99427.28;4988153;28;20080;-50
2022/04/08 05:51:45;;;;;;;3.63;0.50;;;;;;;19.09;49.19;99430.94;4988762;28;20058;-52
2022/04/08 05:54:11;;;;;;;4.18;0.50;;;;;;;19.09;49.22;99430.94;4987928;28;20424;-52
2022/04/08 05:56:37;;;;;;;2.65;0.68;;;;;;;19.09;49.27;99436.22;4987858;28;20049;-44
2022/04/08 05:59:02;;;;;;;3.63;0.55;;;;;;;19.08;49.08;99432.78;4988888;28;20189;-45
2022/04/08 06:01:28;;;;;;;2.30;0.50;;;;;;;19.07;49.03;99427.72;4988982;28;20084;-47
2022/04/08 06:03:54;;;;;;;4.43;0.60;;;;;;;19.08;49.15;99431.97;4987594;28;20031;-54
2022/04/08 06:06:20;;;;;;;2.95;0.50;;;;;;;19.07;49.14;99423.25;4985089;28;20058;-48
2022/04/08 06:08:46;;;;;;;1.75;0.50;;;;;;;19.07;49.19;99440.91;4984708;28;21492;-53
2022/04/08 06:11:11;;;;;;;1.42;0.70;;;;;;;19.08;49.16;99437.25;4986838;28;20730;-54
2022/04/08 06:13:37;;;;;;;2.08;0.50;;;;;;;19.08;49.13;99445.19;4988836;28;20064;-54
2022/04/08 06:16:03;;;;;;;3.03;0.40;;;;;;;19.07;49.27;99447.00;4996993;28;20031;-42
2022/04/08 06:18:28;;;;;;;2.10;0.50;;;;;;;19.08;49.58;99445.19;5013313;22;20030;-47
2022/04/08 06:20:54;;;;;;;3.10;0.60;;;;;;;19.08;49.94;99447.81;4987871;28;20612;-49
2022/04/08 06:23:19;;;;;;;2.58;0.77;;;;;;;19.09;50.39;99450.22;4987183;28;20468;-53
2022/04/08 06:25:45;;;;;;;3.17;0.47;;;;;;;19.11;50.44;99455.28;4988347;28;20030;-47
2022/04/08 06:28:10;;;;;;;2.13;0.77;;;;;;;19.14;50.82;99449.56;4988386;28;20022;-47
2022/04/08 06:30:39;;;;;;;3.53;0.50;;;;;;;19.13;50.98;99458.50;4988050;28;20022;-44
2022/04/08 06:33:07;;;;;;;2.58;0.63;;;;;;;19.11;50.92;99463.22;5001953;28;20041;-55
2022/04/08 06:35:33;;;;;;;3.47;0.50;;;;;;;19.10;51.11;99456.31;4988425;28;20038;-48
2022/04/08 06:38:04;;;;;;;4.95;0.40;;;;;;;19.10;51.04;99466.88;4988245;28;20037;-47
2022/04/08 06:40:32;;;;;;;2.55;0.50;;;;;;;19.10;51.03;99469.53;4986543;28;20045;-51
2022/04/08 06:43:00;;;;;;;2.45;0.35;;;;;;;19.10;50.94;99475.59;4987878;28;20031;-49
2022/04/08 06:45:26;;;;;;;3.40;0.82;;;;;;;19.10;50.61;99470.31;4987686;28;20038;-44
2022/04/08 06:47:52;;;;;;;4.00;0.60;;;;;;;19.13;50.89;99466.44;4987826;28;20034;-47
2022/04/08 06:50:18;;;;;;;2.35;0.40;;;;;;;19.13;50.73;99474.34;4987926;28;20046;-47
2022/04/08 06:52:44;;;;;;;4.47;0.57;;;;;;;19.12;50.92;99478.81;4987788;28;20026;-46
2022/04/08 06:55:10;;;;;;;2.45;1.05;;;;;;;19.12;50.38;99476.19;4986857;28;20030;-46
2022/04/08 06:57:36;;;;;;;2.92;0.75;;;;;;;19.13;50.24;99480.44;4987864;28;20057;-48
2022/04/08 07:00:04;;;;;;;4.72;0.40;;;;;;;19.13;50.17;99480.44;4987025;28;20462;-44
2022/04/08 07:02:30;;;;;;;4.57;0.57;;;;;;;19.13;50.11;99484.91;4986714;28;20656;-44
2022/04/08 07:04:55;;;;;;;1.58;0.45;;;;;;;19.12;50.18;99486.75;4987270;28;20540;-49
2022/04/08 07:07:20;;;;;;;2.58;0.60;;;;;;;19.11;50.00;99482.50;4982414;28;20490;-48
2022/04/08 07:09:46;;;;;;;3.30;0.90;;;;;;;19.12;49.95;99483.28;4983579;28;20026;-47
2022/04/08 07:12:11;;;;;;;2.72;0.60;;;;;;;19.11;49.89;99493.06;4985928;28;20165;-46
2022/04/08 07:14:37;;;;;;;4.80;0.65;;;;;;;19.11;49.82;99500.16;4981329;28;20029;-46
2022/04/08 07:17:02;;;;;;;1.75;0.50;;;;;;;19.11;49.75;99492.25;4985618;28;20482;-46
2022/04/08 07:19:28;;;;;;;2.70;0.68;;;;;;;19.12;49.75;99499.13;4984531;28;20120;-43
2022/04/08 07:21:53;;;;;;;4.05;0.50;;;;;;;19.11;49.64;99494.88;4984505;28;20034;-46
2022/04/08 07:24:19;;;;;;;1.88;0.45;;;;;;;19.11;49.56;99490.41;4985757;28;20053;-46
2022/04/08 07:26:45;;;;;;;5.63;0.70;;;;;;;19.10;49.70;99506.47;4985603;28;20130;-46
2022/04/08 07:29:10;;;;;;;3.05;0.47;;;;;;;19.10;49.64;99509.91;4983133;28;20040;-46
2022/04/08 07:31:36;;;;;;;5.47;0.98;;;;;;;19.08;49.87;99516.44;4984129;28;20034;-49
2022/04/08 07:34:02;;;;;;;10.50;0.50;;;;;;;19.09;50.71;99518.88;4980825;28;20046;-49
2022/04/08 07:36:27;;;;;;;5.32;0.57;;;;;;;19.16;51.59;99521.44;4985583;28;20042;-49
2022/04/08 07:38:52;;;;;;;6.70;1.10;;;;;;;19.22;51.83;99533.75;4985476;28;20076;-50
2022/04/08 07:41:18;;;;;;;5.88;0.50;;;;;;;19.20;51.64;99525.25;4984317;28;20038;-46
2022/04/08 07:43:43;;;;;;;6.38;0.47;;;;;;;19.18;51.66;99535.22;4985218;28;20085;-46
2022/04/08 07:46:09;;;;;;;7.45;0.80;;;;;;;19.16;51.54;99537.28;4984831;28;20045;-48
2022/04/08 07:48:35;;;;;;;6.78;0.88;;;;;;;19.14;51.86;99540.13;4984367;28;20301;-46
2022/04/08 07:51:00;;;;;;;6.57;0.70;;;;;;;19.13;52.83;99543.81;4982999;28;20038;-47
2022/04/08 07:53:26;;;;;;;4.40;0.80;;;;;;;19.14;52.90;99553.34;4989591;28;20026;-49
2022/04/08 07:55:51;;;;;;;3.35;0.50;;;;;;;19.12;52.69;99555.38;4988577;28;20489;-51
2022/04/08 07:58:17;;;;;;;5.32;0.90;;;;;;;19.10;52.59;99560.09;4989721;28;20456;-45
2022/04/08 08:00:42;;;;;;;5.00;0.50;;;;;;;19.07;52.50;99563.16;4988762;28;20508;-48
2022/04/08 08:03:08;;;;;;;5.30;0.60;;;;;;;19.07;52.31;99571.09;4985132;28;20156;-42
2022/04/08 08:05:33;;;;;;;4.35;0.45;;;;;;;19.06;52.14;99584.50;4989645;28;20110;-51
2022/04/08 08:08:00;;;;;;;4.10;0.57;;;;;;;19.07;52.14;99575.56;4988596;28;20030;-54
2022/04/08 08:10:28;;;;;;;4.22;0.73;;;;;;;19.07;51.88;99591.41;4985665;28;20030;-51
2022/04/08 08:12:55;;;;;;;4.82;0.80;;;;;;;19.06;51.43;99590.59;4987246;28;20057;-50
2022/04/08 08:15:21;;;;;;;14.88;1.10;;;;;;;19.06;51.00;99589.78;4988243;28;20497;-43
2022/04/08 08:17:48;;;;;;;13.07;1.20;;;;;;;19.06;51.14;99584.50;4987323;28;20034;-47
2022/04/08 08:20:16;;;;;;;9.73;1.20;;;;;;;19.07;51.21;99594.03;4987990;28;20042;-43
2022/04/08 08:22:41;;;;;;;6.78;0.82;;;;;;;19.07;51.02;99592.19;4987449;28;20031;-47
2022/04/08 08:25:08;;;;;;;7.70;0.98;;;;;;;19.07;50.72;99597.47;4988512;28;20034;-47
2022/04/08 08:27:44;;;;;;;7.30;0.93;;;;;;;19.06;50.41;99602.97;4986270;28;20627;-51
2022/04/08 08:30:12;;;;;;;6.32;0.88;;;;;;;19.07;50.42;99604.59;4988120;28;20038;-46
2022/04/08 08:32:38;;;;;;;3.80;0.50;;;;;;;19.07;50.19;99591.41;4987487;28;20041;-47
2022/04/08 08:35:12;;;;;;;7.60;0.95;;;;;;;19.06;49.99;99598.50;4987424;28;20022;-46
2022/04/08 08:37:38;;;;;;;6.80;0.70;;;;;;;19.06;49.99;99589.78;4987512;28;20124;-49
2022/04/08 08:40:05;;;;;;;8.20;0.80;;;;;;;19.07;49.79;99589.56;4983284;28;20134;-47
2022/04/08 08:42:32;;;;;;;6.75;1.30;;;;;;;19.07;49.76;99591.41;4986231;28;20101;-54
2022/04/08 08:44:57;;;;;;;5.28;0.80;;;;;;;19.08;49.58;99587.72;4983749;28;20037;-53
2022/04/08 08:47:29;;;;;;;7.05;0.57;;;;;;;19.08;49.67;99593.81;4990562;28;20134;-49
2022/04/08 08:49:56;;;;;;;5.68;0.68;;;;;;;19.07;49.68;99592.19;4985893;28;20038;-52
2022/04/08 08:52:22;;;;;;;7.05;0.77;;;;;;;19.08;49.74;99595.66;4989105;28;20045;-51
2022/04/08 08:54:48;;;;;;;5.95;0.88;;;;;;;19.07;49.59;99586.94;4988437;28;20035;-55
2022/04/08 08:57:15;;;;;;;7.18;0.90;;;;;;;19.08;49.62;99587.72;4986316;28;20432;-46
2022/04/08 08:59:42;;;;;;;5.57;1.13;;;;;;;19.08;49.60;99587.72;4989053;28;20453;-44
2022/04/08 09:02:08;;;;;;;4.43;0.73;;;;;;;19.08;49.37;99593.00;4986330;28;20045;-45
2022/04/08 09:04:40;;;;;;;4.07;0.73;;;;;;;19.06;49.51;99600.34;4979357;28;20768;-50
2022/04/08 09:07:06;;;;;;;5.95;0.98;;;;;;;19.06;49.44;99605.63;4986756;28;20037;-53
2022/04/08 09:09:32;;;;;;;7.00;0.88;;;;;;;19.04;49.30;99605.03;4989251;28;20034;-50
2022/04/08 09:12:14;;;;;;;6.72;0.70;;;;;;;19.02;49.34;99599.16;4986083;28;20439;-46
2022/04/08 09:15:01;;;;;;;7.78;0.95;;;;;;;18.99;49.28;99595.13;4987349;28;20148;-49
2022/04/08 09:17:28;;;;;;;4.75;0.65;;;;;;;19.02;49.47;99593.88;5003826;28;20367;-48
2022/04/08 09:19:56;;;;;;;4.88;0.88;;;;;;;19.01;49.34;99587.81;4984541;28;20049;-49
2022/04/08 09:22:25;;;;;;;7.63;1.00;;;;;;;19.01;49.38;99587.00;4988890;28;20042;-52
2022/04/08 09:24:51;;;;;;;6.38;0.80;;;;;;;19.01;49.28;99582.53;4989078;28;20034;-50
2022/04/08 09:27:17;;;;;;;4.93;1.08;;;;;;;19.01;49.28;99581.72;4989032;28;20042;-48
2022/04/08 09:29:44;;;;;;;3.00;0.60;;;;;;;19.01;49.56;99581.72;4988149;28;20034;-45
2022/04/08 09:32:12;;;;;;;2.92;0.70;;;;;;;19.01;49.48;99584.34;4986588;28;20111;-47
2022/04/08 09:34:40;;;;;;;4.85;1.15;;;;;;;19.00;49.51;99580.91;4987829;28;20030;-51
2022/04/08 09:37:13;;;;;;;2.92;0.68;;;;;;;18.99;49.54;99583.78;4988780;28;20125;-55
2022/04/08 09:40:03;;;;;;;8.82;0.80;;;;;;;18.97;49.43;99573.44;4986108;28;20080;-52
2022/04/08 09:42:44;;;;;;;3.35;0.40;;;;;;;18.96;49.53;99571.00;5000029;28;20049;-49
2022/04/08 09:45:11;;;;;;;3.80;0.70;;;;;;;18.99;49.54;99573.22;4988333;28;20038;-50
2022/04/08 09:47:38;;;;;;;4.30;0.85;;;;;;;18.98;49.52;99563.69;4988705;28;20036;-47
2022/04/08 09:50:05;;;;;;;5.70;0.73;;;;;;;18.97;49.69;99564.69;4988073;28;20033;-46
2022/04/08 09:52:32;;;;;;;5.35;0.60;;;;;;;18.97;49.71;99565.50;4989417;28;20474;-58
2022/04/08 09:55:03;;;;;;;3.10;0.60;;;;;;;18.97;49.61;99567.34;4985842;28;20045;-58
2022/04/08 09:57:35;;;;;;;2.83;0.68;;;;;;;18.95;49.77;99556.19;4988308;28;20112;-46
2022/04/08 10:00:01;;;;;;;4.28;0.63;;;;;;;18.96;49.87;99557.81;4988094;28;20430;-48
2022/04/08 10:02:29;;;;;;;3.00;0.50;;;;;;;18.95;49.78;99550.91;4985347;28;20073;-47
2022/04/08 10:04:57;;;;;;;2.88;0.40;;;;;;;18.94;49.87;99541.38;4989532;28;20038;-52
2022/04/08 10:07:24;;;;;;;2.65;0.60;;;;;;;18.94;49.86;99536.91;4986418;28;20026;-46
2022/04/08 10:10:42;;;;;;;3.50;0.60;;;;;;;18.91;49.88;99534.72;4986687;28;20066;-48
2022/04/08 10:13:34;;;;;;;5.60;0.60;;;;;;;18.88;49.98;99533.34;4970321;28;20094;-50
2022/04/08 10:15:59;;;;;;;3.92;0.60;;;;;;;18.92;50.10;99536.34;4984788;28;20100;-49
2022/04/08 10:18:33;;;;;;;3.13;0.55;;;;;;;18.90;49.97;99533.91;4988044;28;20030;-51
2022/04/08 10:20:59;;;;;;;2.78;0.50;;;;;;;18.92;49.92;99531.06;4995551;28;20054;-48
2022/04/08 10:23:37;;;;;;;6.22;0.70;;;;;;;18.91;49.87;99532.09;4987834;28;20450;-50
2022/04/08 10:26:05;;;;;;;4.95;0.98;;;;;;;18.93;49.82;99526.59;4988100;28;20030;-46
2022/04/08 10:28:37;;;;;;;2.33;0.70;;;;;;;18.92;50.08;99524.97;4985383;28;20045;-45
2022/04/08 10:31:20;;;;;;;3.63;0.63;;;;;;;18.90;49.88;99526.00;4993387;28;20173;-48
2022/04/08 10:33:58;;;;;;;2.67;0.60;;;;;;;18.90;50.00;99531.28;4979533;28;20149;-49
2022/04/08 10:36:43;;;;;;;5.47;0.52;;;;;;;18.93;49.80;99521.31;4992588;28;20072;-52
2022/04/08 10:39:12;;;;;;;2.45;0.60;;;;;;;18.94;50.02;99512.34;4981143;28;20034;-52
2022/04/08 10:41:48;;;;;;;3.38;0.40;;;;;;;18.95;49.84;99519.25;4983500;28;20038;-41
2022/04/08 10:44:14;;;;;;;2.75;0.65;;;;;;;18.96;49.88;99518.22;4983128;28;20026;-51
2022/04/08 10:46:50;;;;;;;2.15;0.30;;;;;;;18.95;49.89;99514.78;4999164;28;20088;-47
2022/04/08 10:49:17;;;;;;;1.98;0.40;;;;;;;18.96;49.90;99511.09;4998677;28;20040;-52
2022/04/08 10:51:47;;;;;;;3.78;0.47;;;;;;;18.97;49.87;99506.63;4998014;28;20127;-46
2022/04/08 10:54:12;;;;;;;4.60;0.70;;;;;;;18.97;50.16;99496.06;5001122;28;20036;-45
2022/04/08 10:56:38;;;;;;;4.13;0.50;;;;;;;18.99;50.15;99504.59;4985442;28;20030;-44
2022/04/08 10:59:04;;;;;;;4.60;0.68;;;;;;;18.99;50.07;99501.94;4987487;28;20026;-47
2022/04/08 11:01:34;;;;;;;4.90;0.40;;;;;;;19.00;50.12;99506.19;4986637;28;20117;-41
2022/04/08 11:04:07;;;;;;;4.10;0.40;;;;;;;18.98;50.25;99503.78;4982289;28;20385;-44
2022/04/08 11:06:37;;;;;;;3.58;0.30;;;;;;;18.99;50.32;99504.59;4986976;28;20022;-46
2022/04/08 11:09:08;;;;;;;2.90;0.40;;;;;;;19.00;50.57;99503.56;4987347;28;20059;-45
2022/04/08 11:11:37;;;;;;;4.70;0.70;;;;;;;18.98;50.83;99509.06;4981894;28;20031;-48
2022/04/08 11:14:04;;;;;;;4.13;0.57;;;;;;;18.99;51.03;99508.03;4984084;28;20069;-48
2022/04/08 11:16:38;;;;;;;3.40;0.50;;;;;;;18.98;51.33;99500.34;4982987;28;20100;-46
2022/04/08 11:19:05;;;;;;;2.38;0.40;;;;;;;19.00;51.26;99498.28;4980892;28;20042;-41
2022/04/08 11:21:33;;;;;;;2.83;0.70;;;;;;;19.01;51.64;99502.53;4987368;28;20042;-44
2022/04/08 11:24:02;;;;;;;3.58;0.60;;;;;;;19.03;51.70;99492.56;4987409;28;20030;-49
2022/04/08 11:26:29;;;;;;;4.78;0.68;;;;;;;19.06;52.00;99500.03;4981777;28;20652;-48
2022/04/08 11:29:12;;;;;;;6.88;1.10;;;;;;;19.07;52.25;99501.63;4983101;28;20030;-47
2022/04/08 11:31:39;;;;;;;4.13;1.10;;;;;;;19.09;52.24;99495.09;4983667;28;20041;-49
2022/04/08 11:34:05;;;;;;;3.47;0.60;;;;;;;19.12;52.43;99493.84;4986375;28;20065;-45
2022/04/08 11:36:32;;;;;;;5.32;0.63;;;;;;;19.13;52.56;99498.13;4985462;28;20033;-46